createdAt,value
2023-02-08T00:00:55.106Z,100899.28
2023-02-08T00:03:22.428Z,100912.56
2023-02-08T00:05:50.215Z,100903.09
2023-02-08T00:08:17.310Z,100884.31
2023-02-08T00:10:44.351Z,100905.03
2023-02-08T00:13:11.429Z,100900.78
2023-02-08T00:15:45.843Z,100902.34
2023-02-08T00:18:13.157Z,100903.16
2023-02-08T00:20:42.165Z,100891.81
2023-02-08T00:23:09.238Z,100893.19
2023-02-08T00:25:36.715Z,100899.53
2023-02-08T00:28:04.829Z,100897.44
2023-02-08T00:30:32.516Z,100850.09
2023-02-08T00:33:01.506Z,100899.34
2023-02-08T00:35:29.407Z,100901.47
2023-02-08T00:37:57.114Z,100901.25
2023-02-08T00:40:27.075Z,100897.69
2023-02-08T00:42:54.300Z,100902.84
2023-02-08T00:45:21.330Z,100905.63
2023-02-08T00:47:48.208Z,100833.84
2023-02-08T00:50:15.554Z,100900.16
2023-02-08T00:52:42.549Z,100900.25
2023-02-08T00:55:09.629Z,100902.72
2023-02-08T00:57:36.751Z,100894.09
2023-02-08T01:00:06.085Z,100889.28
2023-02-08T01:02:33.240Z,100888.44
2023-02-08T01:05:00.174Z,100897.41
2023-02-08T01:07:27.126Z,100895.63
2023-02-08T01:09:54.027Z,100895.63
2023-02-08T01:12:20.935Z,100891.97
2023-02-08T01:14:47.900Z,100885.16
2023-02-08T01:17:14.800Z,100899.13
2023-02-08T01:19:42.604Z,100886.09
2023-02-08T01:22:09.647Z,100886.94
2023-02-08T01:24:36.637Z,100886.13
2023-02-08T01:27:03.576Z,100883.31
2023-02-08T01:29:30.553Z,100882.44
2023-02-08T01:31:57.537Z,100883.22
2023-02-08T01:34:27.355Z,100889.41
2023-02-08T01:36:54.298Z,100885.88
2023-02-08T01:39:21.299Z,100883.03
2023-02-08T01:41:48.343Z,100884.69
2023-02-08T01:44:15.235Z,100883.88
2023-02-08T01:46:44.867Z,100883.78
2023-02-08T01:49:26.898Z,100889.56
2023-02-08T01:52:05.717Z,100886.16
2023-02-08T01:54:40.877Z,100897.44
2023-02-08T01:57:08.570Z,100891.00
2023-02-08T01:59:49.984Z,100900.34
2023-02-08T02:02:19.959Z,100896.72
2023-02-08T02:04:48.976Z,100893.00
2023-02-08T02:07:38.822Z,100895.84
2023-02-08T02:10:22.653Z,100894.25
2023-02-08T02:13:17.036Z,100897.63
2023-02-08T02:16:05.975Z,100838.66
2023-02-08T02:18:48.763Z,100892.97
2023-02-08T02:21:34.588Z,100883.41
2023-02-08T02:24:27.172Z,100894.75
2023-02-08T02:27:40.971Z,100889.56
2023-02-08T02:30:16.938Z,100898.44
2023-02-08T02:33:22.452Z,100910.13
2023-02-08T02:36:09.751Z,100903.72
2023-02-08T02:39:11.946Z,100893.13
2023-02-08T02:42:26.536Z,100904.78
2023-02-08T02:45:11.444Z,100879.59
2023-02-08T02:47:51.993Z,100902.91
2023-02-08T02:50:37.424Z,100906.78
2023-02-08T02:53:20.886Z,100905.09
2023-02-08T02:55:56.570Z,100911.25
2023-02-08T02:58:26.787Z,100916.59
2023-02-08T03:00:56.542Z,100918.06
2023-02-08T03:03:26.943Z,100916.91
2023-02-08T03:06:00.265Z,100925.53
2023-02-08T03:08:55.570Z,100934.81
2023-02-08T03:11:27.179Z,100927.69
2023-02-08T03:14:24.162Z,100934.59
2023-02-08T03:17:04.639Z,100936.31
2023-02-08T03:19:36.386Z,100936.97
2023-02-08T03:22:23.877Z,100933.31
2023-02-08T03:25:06.518Z,100927.50
2023-02-08T03:27:36.128Z,100936.31
2023-02-08T03:30:13.755Z,100942.53
2023-02-08T03:33:20.528Z,100944.50
2023-02-08T03:36:05.488Z,100940.06
2023-02-08T03:38:39.923Z,100934.63
2023-02-08T03:41:10.981Z,100900.94
2023-02-08T03:43:47.709Z,100943.13
2023-02-08T03:46:21.901Z,100894.78
2023-02-08T03:48:54.622Z,100939.69
2023-02-08T03:51:23.427Z,100908.88
2023-02-08T03:53:52.963Z,100947.75
2023-02-08T03:56:48.659Z,100944.25
2023-02-08T03:59:22.839Z,100948.75
2023-02-08T04:02:01.589Z,100941.78
2023-02-08T04:04:34.333Z,100946.75
2023-02-08T04:07:01.433Z,100951.34
2023-02-08T04:09:28.537Z,100955.91
2023-02-08T04:11:55.488Z,100946.19
2023-02-08T04:14:22.358Z,100947.28
2023-02-08T04:16:49.286Z,100948.41
2023-02-08T04:19:16.245Z,100943.94
2023-02-08T04:21:43.167Z,100945.56
2023-02-08T04:24:10.228Z,100918.78
2023-02-08T04:26:37.145Z,100956.00
2023-02-08T04:29:04.094Z,100942.00
2023-02-08T04:31:31.149Z,100945.69
2023-02-08T04:33:58.229Z,100939.50
2023-02-08T04:36:25.339Z,100945.56
2023-02-08T04:38:52.247Z,100942.84
2023-02-08T04:41:19.329Z,100947.09
2023-02-08T04:43:46.288Z,100938.44
2023-02-08T04:46:13.247Z,100942.78
2023-02-08T04:48:40.338Z,100937.22
2023-02-08T04:51:07.195Z,100935.34
2023-02-08T04:53:35.094Z,100935.53
2023-02-08T04:56:02.028Z,100940.03
2023-02-08T04:58:28.973Z,100934.84
2023-02-08T05:00:55.862Z,100938.44
2023-02-08T05:03:22.859Z,100953.19
2023-02-08T05:06:01.132Z,100950.63
2023-02-08T05:08:28.551Z,100956.13
2023-02-08T05:10:55.571Z,100952.63
2023-02-08T05:13:22.507Z,100957.75
2023-02-08T05:15:49.460Z,100963.03
2023-02-08T05:18:16.622Z,100961.81
2023-02-08T05:20:43.641Z,100964.28
2023-02-08T05:23:10.614Z,100962.19
2023-02-08T05:25:39.492Z,100963.03
2023-02-08T05:28:06.533Z,100965.91
2023-02-08T05:30:33.539Z,100963.19
2023-02-08T05:33:00.455Z,100959.63
2023-02-08T05:35:27.490Z,100962.28
2023-02-08T05:37:54.342Z,100965.53
2023-02-08T05:40:21.664Z,100970.84
2023-02-08T05:42:48.548Z,100966.34
2023-02-08T05:45:15.600Z,100970.84
2023-02-08T05:47:42.961Z,100967.28
2023-02-08T05:50:10.719Z,100972.56
2023-02-08T05:52:37.651Z,100976.94
2023-02-08T05:55:04.950Z,100970.75
2023-02-08T05:57:34.290Z,100980.28
2023-02-08T06:00:03.512Z,100981.16
2023-02-08T06:02:30.722Z,100991.56
2023-02-08T06:04:57.615Z,100987.97
2023-02-08T06:07:24.553Z,100994.78
2023-02-08T06:09:51.473Z,100994.50
2023-02-08T06:12:18.393Z,100988.38
2023-02-08T06:14:45.316Z,100996.00
2023-02-08T06:17:12.363Z,100998.78
2023-02-08T06:19:39.288Z,100996.91
2023-02-08T06:22:06.203Z,101010.03
2023-02-08T06:24:33.144Z,101009.97
2023-02-08T06:27:00.062Z,101010.66
2023-02-08T06:29:27.005Z,101014.22
2023-02-08T06:31:54.099Z,101016.81
2023-02-08T06:34:21.118Z,101019.75
2023-02-08T06:36:48.046Z,101027.94
2023-02-08T06:39:14.980Z,101024.34
2023-02-08T06:41:41.877Z,101021.69
2023-02-08T06:44:08.787Z,101027.00
2023-02-08T06:46:35.677Z,101002.91
2023-02-08T06:49:02.628Z,101033.16
2023-02-08T06:51:29.499Z,101028.50
2023-02-08T06:53:56.442Z,101042.31
2023-02-08T06:56:23.391Z,101038.97
2023-02-08T06:58:50.299Z,101038.88
2023-02-08T07:01:17.262Z,101050.66
2023-02-08T07:03:44.246Z,101030.94
2023-02-08T07:06:19.476Z,101046.47
2023-02-08T07:08:48.248Z,101054.84
2023-02-08T07:11:18.265Z,101049.13
2023-02-08T07:13:50.493Z,101054.41
2023-02-08T07:16:19.675Z,101042.00
2023-02-08T07:18:47.207Z,101035.28
2023-02-08T07:21:14.242Z,101053.66
2023-02-08T07:23:41.293Z,101049.00
2023-02-08T07:26:10.995Z,101054.53
2023-02-08T07:28:38.657Z,101059.59
2023-02-08T07:31:14.510Z,101061.56
2023-02-08T07:33:41.781Z,101052.66
2023-02-08T07:36:10.778Z,101052.50
2023-02-08T07:38:38.363Z,101058.38
2023-02-08T07:41:08.519Z,101059.97
2023-02-08T07:43:37.036Z,101059.00
2023-02-08T07:46:14.624Z,101062.06
2023-02-08T07:48:42.185Z,101061.56
2023-02-08T07:51:10.316Z,101057.94
2023-02-08T07:53:37.970Z,101053.97
2023-02-08T07:56:05.739Z,101068.19
2023-02-08T07:58:32.662Z,101060.50
2023-02-08T08:01:06.912Z,101056.84
2023-02-08T08:03:39.417Z,101063.53
2023-02-08T08:06:06.697Z,101067.09
2023-02-08T08:08:33.756Z,101066.28
2023-02-08T08:11:03.458Z,101070.47
2023-02-08T08:13:30.645Z,101073.53
2023-02-08T08:15:57.663Z,101082.03
2023-02-08T08:18:24.686Z,101089.97
2023-02-08T08:20:51.636Z,101091.28
2023-02-08T08:23:19.890Z,101081.19
2023-02-08T08:25:47.104Z,101088.91
2023-02-08T08:28:14.313Z,101091.56
2023-02-08T08:30:45.535Z,101090.63
2023-02-08T08:33:14.244Z,101097.59
2023-02-08T08:35:42.815Z,101095.69
2023-02-08T08:38:10.266Z,101092.09
2023-02-08T08:40:37.121Z,101095.88
2023-02-08T08:43:04.035Z,101102.44
2023-02-08T08:45:30.945Z,101105.09
2023-02-08T08:47:58.722Z,101096.63
2023-02-08T08:50:25.616Z,101109.25
2023-02-08T08:52:53.391Z,101110.19
2023-02-08T08:55:20.333Z,101097.50
2023-02-08T08:57:47.267Z,101104.50
2023-02-08T09:00:14.870Z,101107.81
2023-02-08T09:02:41.750Z,101096.47
2023-02-08T09:05:08.893Z,101107.59
2023-02-08T09:07:35.879Z,101110.03
2023-02-08T09:10:03.067Z,101114.28
2023-02-08T09:12:29.975Z,101117.75
2023-02-08T09:14:56.983Z,101110.69
2023-02-08T09:17:24.270Z,101120.66
2023-02-08T09:19:51.308Z,101126.59
2023-02-08T09:22:18.962Z,101126.41
2023-02-08T09:24:46.067Z,101124.19
2023-02-08T09:27:13.037Z,101119.78
2023-02-08T09:29:40.059Z,101123.03
2023-02-08T09:32:08.362Z,101113.13
2023-02-08T09:34:36.625Z,101130.06
2023-02-08T09:37:03.579Z,101121.13
2023-02-08T09:39:30.545Z,101119.56
2023-02-08T09:42:14.414Z,101117.13
2023-02-08T09:44:48.802Z,101121.47
2023-02-08T09:47:30.480Z,101117.66
2023-02-08T09:50:39.754Z,101119.75
2023-02-08T09:53:27.671Z,101128.75
2023-02-08T09:56:01.972Z,101115.78
2023-02-08T09:58:40.603Z,101121.03
2023-02-08T10:01:23.237Z,101113.72
2023-02-08T10:03:56.086Z,101136.34
2023-02-08T10:06:23.089Z,101137.22
2023-02-08T10:08:52.755Z,101132.91
2023-02-08T10:11:38.237Z,101122.13
2023-02-08T10:14:29.784Z,101119.44
2023-02-08T10:17:33.282Z,101130.63
2023-02-08T10:20:24.658Z,101123.28
2023-02-08T10:23:05.738Z,101112.69
2023-02-08T10:25:54.184Z,101116.22
2023-02-08T10:28:59.675Z,101108.59
2023-02-08T10:32:00.271Z,101110.81
2023-02-08T10:34:50.399Z,101113.19
2023-02-08T10:37:20.518Z,101114.88
2023-02-08T10:39:50.224Z,101113.72
2023-02-08T10:42:22.588Z,101115.41
2023-02-08T10:45:12.729Z,101111.72
2023-02-08T10:47:54.577Z,101110.97
2023-02-08T10:50:39.248Z,101119.75
2023-02-08T10:53:06.914Z,101113.56
2023-02-08T10:55:39.867Z,101111.81
2023-02-08T10:58:07.428Z,101112.69
2023-02-08T11:00:39.535Z,101107.16
2023-02-08T11:03:25.177Z,101097.97
2023-02-08T11:05:53.347Z,101122.19
2023-02-08T11:08:25.818Z,101132.41
2023-02-08T11:11:03.794Z,101128.53
2023-02-08T11:13:46.026Z,101125.91
2023-02-08T11:16:22.593Z,101118.59
2023-02-08T11:18:57.049Z,101128.81
2023-02-08T11:21:26.200Z,101113.25
2023-02-08T11:23:55.802Z,101115.75
2023-02-08T11:26:33.245Z,101116.09
2023-02-08T11:29:08.835Z,101103.75
2023-02-08T11:31:36.882Z,101111.53
2023-02-08T11:34:11.570Z,101087.16
2023-02-08T11:36:47.102Z,101103.22
2023-02-08T11:39:49.990Z,101105.47
2023-02-08T11:42:26.677Z,101101.56
2023-02-08T11:44:55.831Z,101108.19
2023-02-08T11:47:35.644Z,101102.84
2023-02-08T11:50:06.137Z,101102.34
2023-02-08T11:52:39.534Z,101097.78
2023-02-08T11:55:35.900Z,101099.03
2023-02-08T11:58:20.586Z,101090.63
2023-02-08T12:01:18.148Z,101079.38
2023-02-08T12:03:48.306Z,101080.94
2023-02-08T12:06:17.953Z,101088.13
2023-02-08T12:08:44.895Z,101091.88
2023-02-08T12:11:38.140Z,101082.34
2023-02-08T12:14:35.789Z,101079.53
2023-02-08T12:17:17.831Z,101069.75
2023-02-08T12:19:50.665Z,101076.81
2023-02-08T12:22:27.217Z,101072.72
2023-02-08T12:25:10.649Z,101072.59
2023-02-08T12:27:53.155Z,101074.34
2023-02-08T12:30:30.602Z,101073.88
2023-02-08T12:33:22.927Z,101064.09
2023-02-08T12:36:04.090Z,101060.16
2023-02-08T12:39:10.389Z,101056.22
2023-02-08T12:41:55.929Z,101055.06
2023-02-08T12:44:30.602Z,101037.72
2023-02-08T12:47:24.104Z,101008.72
2023-02-08T12:49:56.944Z,101031.56
2023-02-08T12:52:31.681Z,101032.91
2023-02-08T12:55:11.275Z,101035.53
2023-02-08T12:57:40.114Z,101036.50
2023-02-08T13:00:16.519Z,101046.06
2023-02-08T13:02:57.728Z,101029.34
2023-02-08T13:05:31.887Z,101035.31
2023-02-08T13:08:35.303Z,101021.19
2023-02-08T13:11:19.133Z,101010.72
2023-02-08T13:14:04.952Z,101022.00
2023-02-08T13:16:42.959Z,101023.63
2023-02-08T13:19:59.726Z,101023.25
2023-02-08T13:22:27.743Z,101018.41
2023-02-08T13:25:06.780Z,101011.19
2023-02-08T13:27:34.686Z,101018.16
2023-02-08T13:30:02.328Z,101011.91
2023-02-08T13:32:42.108Z,101018.66
2023-02-08T13:35:18.789Z,101024.03
2023-02-08T13:38:21.922Z,100987.09
2023-02-08T13:41:08.917Z,101016.38
2023-02-08T13:43:49.001Z,101023.41
2023-02-08T13:46:18.174Z,101021.59
2023-02-08T13:48:54.426Z,101026.78
2023-02-08T13:51:33.477Z,101020.84
2023-02-08T13:54:00.610Z,101012.91
2023-02-08T13:56:45.440Z,101020.75
2023-02-08T13:59:27.477Z,101015.66
2023-02-08T14:02:30.481Z,101021.53
2023-02-08T14:05:38.486Z,101019.94
2023-02-08T14:08:08.814Z,101024.44
2023-02-08T14:10:43.609Z,101014.16
2023-02-08T14:13:16.597Z,101017.50
2023-02-08T14:15:44.316Z,101018.34
2023-02-08T14:18:26.015Z,101022.50
2023-02-08T14:21:04.288Z,101019.50
2023-02-08T14:23:35.230Z,101020.31
2023-02-08T14:26:11.169Z,101007.13
2023-02-08T14:28:44.453Z,101012.63
2023-02-08T14:31:15.359Z,101016.00
2023-02-08T14:33:53.538Z,101014.34
2023-02-08T14:36:32.173Z,101012.00
2023-02-08T14:39:27.269Z,101022.19
2023-02-08T14:42:01.387Z,101012.84
2023-02-08T14:44:43.503Z,101011.91
2023-02-08T14:47:25.960Z,101008.53
2023-02-08T14:50:26.388Z,100999.34
2023-02-08T14:53:20.012Z,100994.16
2023-02-08T14:55:52.381Z,101005.88
2023-02-08T14:58:31.329Z,101000.06
2023-02-08T15:01:03.385Z,101006.81
2023-02-08T15:03:32.762Z,100992.16
2023-02-08T15:06:21.041Z,100994.91
2023-02-08T15:08:55.653Z,100999.41
2023-02-08T15:11:30.228Z,100991.22
2023-02-08T15:14:01.236Z,100994.91
2023-02-08T15:16:41.163Z,100994.03
2023-02-08T15:19:10.404Z,100970.81
2023-02-08T15:21:37.620Z,100988.13
2023-02-08T15:24:17.556Z,100984.09
2023-02-08T15:26:58.150Z,100984.41
2023-02-08T15:29:42.941Z,100980.88
2023-02-08T15:32:18.148Z,100955.38
2023-02-08T15:34:51.157Z,100980.78
2023-02-08T15:37:19.487Z,100999.84
2023-02-08T15:39:51.074Z,100985.16
2023-02-08T15:42:30.211Z,100990.72
2023-02-08T15:44:57.446Z,100993.44
2023-02-08T15:47:38.032Z,100987.34
2023-02-08T15:50:15.263Z,100991.09
2023-02-08T15:52:42.578Z,100994.09
2023-02-08T15:55:17.788Z,100983.81
2023-02-08T15:57:56.163Z,100997.09
2023-02-08T16:00:32.225Z,100994.81
2023-02-08T16:03:03.121Z,100995.94
2023-02-08T16:05:31.885Z,100994.38
2023-02-08T16:08:00.788Z,101004.97
2023-02-08T16:10:46.780Z,101002.38
2023-02-08T16:13:24.566Z,101004.25
2023-02-08T16:16:07.131Z,101001.34
2023-02-08T16:18:38.474Z,101004.09
2023-02-08T16:21:27.044Z,101006.34
2023-02-08T16:23:56.929Z,101007.47
2023-02-08T16:26:23.796Z,101020.06
2023-02-08T16:29:08.951Z,101015.88
2023-02-08T16:31:36.270Z,101014.16
2023-02-08T16:34:07.038Z,101006.06
2023-02-08T16:36:39.626Z,100997.78
2023-02-08T16:39:16.340Z,101008.94
2023-02-08T16:42:06.393Z,101011.94
2023-02-08T16:45:01.530Z,101009.63
2023-02-08T16:47:45.327Z,100995.94
2023-02-08T16:50:15.424Z,101002.28
2023-02-08T16:52:42.589Z,101000.59
2023-02-08T16:55:21.939Z,101003.19
2023-02-08T16:57:55.317Z,100995.41
2023-02-08T17:00:32.238Z,101007.91
2023-02-08T17:03:00.439Z,100987.13
2023-02-08T17:05:30.356Z,100994.78
2023-02-08T17:07:58.374Z,101003.53
2023-02-08T17:10:28.733Z,101005.25
2023-02-08T17:13:09.825Z,101008.00
2023-02-08T17:15:44.167Z,101010.47
2023-02-08T17:18:13.090Z,101012.25
2023-02-08T17:20:40.830Z,101011.47
2023-02-08T17:23:08.048Z,100974.28
2023-02-08T17:25:35.981Z,101003.97
2023-02-08T17:28:07.128Z,100965.59
2023-02-08T17:30:39.348Z,101012.59
2023-02-08T17:33:07.784Z,101017.28
2023-02-08T17:35:37.255Z,101018.31
2023-02-08T17:38:05.510Z,101014.25
2023-02-08T17:40:37.019Z,101017.06
2023-02-08T17:43:05.926Z,101012.81
2023-02-08T17:45:39.432Z,101017.31
2023-02-08T17:48:06.680Z,101010.56
2023-02-08T17:50:34.213Z,100987.16
2023-02-08T17:53:01.140Z,101022.91
2023-02-08T17:55:28.074Z,101013.59
2023-02-08T17:57:55.025Z,101022.13
2023-02-08T18:00:24.195Z,101023.81
2023-02-08T18:02:55.397Z,101014.16
2023-02-08T18:05:26.246Z,101016.00
2023-02-08T18:07:55.417Z,101019.66
2023-02-08T18:10:23.713Z,101014.47
2023-02-08T18:12:51.038Z,100976.88
2023-02-08T18:15:21.537Z,101022.81
2023-02-08T18:17:50.563Z,101024.88
2023-02-08T18:20:18.504Z,101028.84
2023-02-08T18:22:45.997Z,100983.16
2023-02-08T18:25:14.649Z,101023.13
2023-02-08T18:27:41.787Z,101015.19
2023-02-08T18:30:10.204Z,101019.53
2023-02-08T18:32:37.423Z,101033.53
2023-02-08T18:35:06.740Z,101031.72
2023-02-08T18:37:34.187Z,101025.59
2023-02-08T18:40:01.150Z,101027.28
2023-02-08T18:42:28.776Z,100979.09
2023-02-08T18:44:55.835Z,101017.63
2023-02-08T18:47:22.781Z,101016.25
2023-02-08T18:49:54.797Z,100971.13
2023-02-08T18:52:23.902Z,101024.59
2023-02-08T18:54:51.254Z,101019.53
2023-02-08T18:57:18.838Z,101009.78
2023-02-08T18:59:45.787Z,100982.00
2023-02-08T19:02:18.908Z,101005.94
2023-02-08T19:04:45.852Z,101008.44
2023-02-08T19:07:13.702Z,101005.88
2023-02-08T19:09:41.339Z,101008.50
2023-02-08T19:12:09.406Z,100994.69
2023-02-08T19:14:36.533Z,101005.41
2023-02-08T19:17:03.795Z,101007.53
2023-02-08T19:19:30.793Z,101009.31
2023-02-08T19:21:57.737Z,101003.06
2023-02-08T19:24:25.334Z,101000.31
2023-02-08T19:26:52.364Z,100998.69
2023-02-08T19:29:23.035Z,100982.16
2023-02-08T19:31:50.640Z,100958.91
2023-02-08T19:34:18.324Z,100991.94
2023-02-08T19:36:52.658Z,100987.75
2023-02-08T19:39:25.041Z,100991.34
2023-02-08T19:41:55.721Z,100990.72
2023-02-08T19:44:23.054Z,100985.38
2023-02-08T19:46:53.168Z,100983.63
2023-02-08T19:49:20.995Z,100981.06
2023-02-08T19:51:48.391Z,100977.59
2023-02-08T19:54:18.048Z,100970.72
2023-02-08T19:56:45.917Z,100977.78
2023-02-08T19:59:35.204Z,100977.13
2023-02-08T20:02:02.552Z,100971.38
2023-02-08T20:04:29.940Z,100956.72
2023-02-08T20:06:56.870Z,100972.09
2023-02-08T20:09:23.853Z,100979.13
2023-02-08T20:12:00.092Z,100973.84
2023-02-08T20:14:33.121Z,100975.13
2023-02-08T20:17:01.762Z,100965.81
2023-02-08T20:19:29.479Z,100968.59
2023-02-08T20:21:56.443Z,100966.06
2023-02-08T20:24:23.385Z,100966.19
2023-02-08T20:26:50.460Z,100956.66
2023-02-08T20:29:17.725Z,100957.00
2023-02-08T20:31:47.870Z,100963.19
2023-02-08T20:34:16.531Z,100948.81
2023-02-08T20:37:06.894Z,100958.91
2023-02-08T20:39:35.495Z,100948.38
2023-02-08T20:42:02.944Z,100948.97
2023-02-08T20:44:31.123Z,100936.66
2023-02-08T20:46:58.077Z,100942.72
2023-02-08T20:49:26.704Z,100941.84
2023-02-08T20:51:54.705Z,100936.34
2023-02-08T20:54:24.736Z,100932.16
2023-02-08T20:56:53.181Z,100940.03
2023-02-08T20:59:20.438Z,100914.81
2023-02-08T21:01:47.643Z,100924.31
2023-02-08T21:04:17.274Z,100926.16
2023-02-08T21:06:46.515Z,100931.66
2023-02-08T21:09:16.187Z,100925.94
2023-02-08T21:11:44.125Z,100916.41
2023-02-08T21:14:19.282Z,100912.63
2023-02-08T21:16:58.917Z,100909.03
2023-02-08T21:19:28.839Z,100916.41
2023-02-08T21:21:59.194Z,100927.41
2023-02-08T21:24:28.332Z,100920.47
2023-02-08T21:26:57.037Z,100933.66
2023-02-08T21:29:24.877Z,100927.75
2023-02-08T21:31:54.543Z,100937.44
2023-02-08T21:34:21.845Z,100929.63
2023-02-08T21:36:48.867Z,100924.34
2023-02-08T21:39:15.732Z,100924.50
2023-02-08T21:41:42.686Z,100919.13
2023-02-08T21:44:11.084Z,100913.00
2023-02-08T21:46:38.018Z,100920.81
2023-02-08T21:49:23.648Z,100926.09
2023-02-08T21:52:09.394Z,100926.09
2023-02-08T21:54:42.363Z,100928.53
2023-02-08T21:57:13.114Z,100931.00
2023-02-08T21:59:41.020Z,100923.84
2023-02-08T22:02:16.631Z,100919.38
2023-02-08T22:05:01.960Z,100909.75
2023-02-08T22:07:29.178Z,100921.13
2023-02-08T22:09:56.335Z,100917.56
2023-02-08T22:12:23.791Z,100924.59
2023-02-08T22:14:51.095Z,100897.59
2023-02-08T22:17:18.261Z,100913.97
2023-02-08T22:19:45.192Z,100912.28
2023-02-08T22:22:12.212Z,100911.53
2023-02-08T22:24:39.273Z,100922.97
2023-02-08T22:27:06.209Z,100916.84
2023-02-08T22:29:33.603Z,100887.41
2023-02-08T22:32:01.335Z,100914.22
2023-02-08T22:34:28.575Z,100915.13
2023-02-08T22:36:55.606Z,100903.72
2023-02-08T22:39:22.760Z,100903.72
2023-02-08T22:41:49.772Z,100895.88
2023-02-08T22:44:16.806Z,100892.59
2023-02-08T22:46:43.728Z,100891.78
2023-02-08T22:49:10.782Z,100881.53
2023-02-08T22:51:37.946Z,100892.19
2023-02-08T22:54:05.109Z,100883.47
2023-02-08T22:56:32.044Z,100874.81
2023-02-08T22:59:00.383Z,100884.41
2023-02-08T23:01:27.808Z,100881.88
2023-02-08T23:03:54.801Z,100882.69
2023-02-08T23:06:21.714Z,100880.03
2023-02-08T23:08:49.080Z,100874.78
2023-02-08T23:11:16.424Z,100873.94
2023-02-08T23:13:43.352Z,100877.69
2023-02-08T23:16:16.112Z,100880.47
2023-02-08T23:18:43.397Z,100883.09
2023-02-08T23:21:13.614Z,100879.63
2023-02-08T23:23:41.347Z,100880.47
2023-02-08T23:26:10.777Z,100877.75
2023-02-08T23:28:37.794Z,100876.88
2023-02-08T23:31:06.761Z,100883.78
2023-02-08T23:33:34.397Z,100869.81
2023-02-08T23:36:05.797Z,100879.59
2023-02-08T23:38:32.765Z,100876.34
2023-02-08T23:41:04.227Z,100875.50
2023-02-08T23:43:31.475Z,100875.44
2023-02-08T23:45:58.883Z,100867.47
2023-02-08T23:48:25.792Z,100864.38
2023-02-08T23:51:00.277Z,100831.69
2023-02-08T23:53:30.366Z,100869.91
2023-02-08T23:56:20.850Z,100865.56
2023-02-08T23:58:50.112Z,100856.81
